createdAt,value
2022-08-22T00:00:59.185Z,67.75
2022-08-22T00:02:42.866Z,61.55
2022-08-22T00:03:12.015Z,66.56
2022-08-22T00:03:45.959Z,67.69
2022-08-22T00:06:23.816Z,67.81
2022-08-22T00:09:16.940Z,68.00
2022-08-22T00:11:52.163Z,68.07
2022-08-22T00:14:32.464Z,67.99
2022-08-22T00:17:06.238Z,68.20
2022-08-22T00:19:41.604Z,68.49
2022-08-22T00:22:17.913Z,68.26
2022-08-22T00:24:53.215Z,68.49
2022-08-22T00:27:26.720Z,68.45
2022-08-22T00:30:05.342Z,68.50
2022-08-22T00:32:42.823Z,68.61
2022-08-22T00:35:21.562Z,68.83
2022-08-22T00:38:02.127Z,68.62
2022-08-22T00:40:44.835Z,68.78
2022-08-22T00:43:48.357Z,68.61
2022-08-22T00:46:32.246Z,68.93
2022-08-22T00:49:17.179Z,69.09
2022-08-22T00:52:13.340Z,68.61
2022-08-22T00:54:58.337Z,68.93
2022-08-22T00:57:51.219Z,68.89
2022-08-22T01:00:22.751Z,69.25
2022-08-22T01:03:21.195Z,69.14
2022-08-22T01:06:06.669Z,69.02
2022-08-22T01:08:53.723Z,69.13
2022-08-22T01:11:42.492Z,69.22
2022-08-22T01:14:35.068Z,69.35
2022-08-22T01:17:44.692Z,69.20
2022-08-22T01:20:48.294Z,69.21
2022-08-22T01:23:53.363Z,69.21
2022-08-22T01:27:01.916Z,69.31
2022-08-22T01:30:01.428Z,69.48
2022-08-22T01:33:15.403Z,69.48
2022-08-22T01:36:26.251Z,69.42
2022-08-22T01:39:15.313Z,69.39
2022-08-22T01:42:15.234Z,69.61
2022-08-22T01:45:03.929Z,69.49
2022-08-22T01:47:38.779Z,69.71
2022-08-22T01:50:18.808Z,69.85
2022-08-22T01:52:51.822Z,70.23
2022-08-22T01:55:31.964Z,69.75
2022-08-22T01:58:04.021Z,70.09
2022-08-22T02:00:51.423Z,70.24
2022-08-22T02:03:30.034Z,70.43
2022-08-22T02:06:07.219Z,70.27
2022-08-22T02:08:44.496Z,70.49
2022-08-22T02:11:35.249Z,70.40
2022-08-22T02:14:18.289Z,70.54
2022-08-22T02:16:53.407Z,70.66
2022-08-22T02:19:37.354Z,70.73
2022-08-22T02:22:29.503Z,70.68
2022-08-22T02:25:09.056Z,70.91
2022-08-22T02:27:49.655Z,70.88
2022-08-22T02:30:21.849Z,70.74
2022-08-22T02:33:00.701Z,70.83
2022-08-22T02:35:37.152Z,71.34
2022-08-22T02:38:23.043Z,70.99
2022-08-22T02:41:06.769Z,70.97
2022-08-22T02:43:43.835Z,70.75
2022-08-22T02:46:22.619Z,71.18
2022-08-22T02:49:00.155Z,70.86
2022-08-22T02:51:36.638Z,70.91
2022-08-22T02:54:17.634Z,70.92
2022-08-22T02:56:52.594Z,71.02
2022-08-22T02:59:33.506Z,70.90
2022-08-22T03:02:35.496Z,70.99
2022-08-22T03:05:22.731Z,71.01
2022-08-22T03:08:02.245Z,70.42
2022-08-22T03:10:36.345Z,70.97
2022-08-22T03:13:11.917Z,70.78
2022-08-22T03:15:49.362Z,70.78
2022-08-22T03:18:25.034Z,71.02
2022-08-22T03:20:58.946Z,71.28
2022-08-22T03:23:45.962Z,70.76
2022-08-22T03:26:24.944Z,71.12
2022-08-22T03:29:00.397Z,71.10
2022-08-22T03:31:32.314Z,70.88
2022-08-22T03:34:20.916Z,71.29
2022-08-22T03:37:03.045Z,70.96
2022-08-22T03:39:49.968Z,70.87
2022-08-22T03:42:42.518Z,71.05
2022-08-22T03:45:37.965Z,70.89
2022-08-22T03:48:46.085Z,70.90
2022-08-22T03:51:31.103Z,71.02
2022-08-22T03:54:19.782Z,71.27
2022-08-22T03:57:32.513Z,71.32
2022-08-22T04:00:25.437Z,70.71
2022-08-22T04:03:20.894Z,70.65
2022-08-22T04:06:17.600Z,71.14
2022-08-22T04:09:21.382Z,70.87
2022-08-22T04:12:17.536Z,70.94
2022-08-22T04:15:22.506Z,70.71
2022-08-22T04:18:19.046Z,70.74
2022-08-22T04:21:17.938Z,71.10
2022-08-22T04:24:13.966Z,70.56
2022-08-22T04:26:50.644Z,70.83
2022-08-22T04:29:25.235Z,71.08
2022-08-22T04:32:10.590Z,70.92
2022-08-22T04:34:47.590Z,70.40
2022-08-22T04:37:22.270Z,70.95
2022-08-22T04:39:57.494Z,70.58
2022-08-22T04:42:33.532Z,70.58
2022-08-22T04:45:10.312Z,70.88
2022-08-22T04:47:42.796Z,70.76
2022-08-22T04:50:21.811Z,70.78
2022-08-22T04:53:17.447Z,70.58
2022-08-22T04:55:58.637Z,70.78
2022-08-22T04:58:39.606Z,70.79
2022-08-22T05:01:17.066Z,70.72
2022-08-22T05:03:52.913Z,70.72
2022-08-22T05:06:26.246Z,70.50
2022-08-22T05:08:59.571Z,70.22
2022-08-22T05:11:30.504Z,70.26
2022-08-22T05:14:04.065Z,70.14
2022-08-22T05:16:37.211Z,70.31
2022-08-22T05:19:16.943Z,70.36
2022-08-22T05:21:50.208Z,68.68
2022-08-22T05:24:28.017Z,67.76
2022-08-22T05:27:01.522Z,66.77
2022-08-22T05:29:32.642Z,65.70
2022-08-22T05:32:04.639Z,66.06
2022-08-22T05:34:38.601Z,65.94
2022-08-22T05:37:12.670Z,64.77
2022-08-22T05:39:46.614Z,63.80
2022-08-22T05:42:24.899Z,64.01
2022-08-22T05:44:55.868Z,64.12
2022-08-22T05:47:28.200Z,63.69
2022-08-22T05:50:01.599Z,64.23
2022-08-22T05:52:39.452Z,64.42
2022-08-22T05:55:21.660Z,64.64
2022-08-22T05:58:10.419Z,64.14
2022-08-22T06:00:42.884Z,64.69
2022-08-22T06:03:19.039Z,64.51
2022-08-22T06:05:52.907Z,64.29
2022-08-22T06:08:27.346Z,64.72
2022-08-22T06:10:59.905Z,64.51
2022-08-22T06:13:34.611Z,64.37
2022-08-22T06:16:09.958Z,64.71
2022-08-22T06:18:42.152Z,64.71
2022-08-22T06:21:17.739Z,64.23
2022-08-22T06:23:52.667Z,64.37
2022-08-22T06:26:23.322Z,64.72
2022-08-22T06:28:56.733Z,64.72
2022-08-22T06:31:31.025Z,64.22
2022-08-22T06:34:05.434Z,64.31
2022-08-22T06:36:37.750Z,64.82
2022-08-22T06:39:18.508Z,64.29
2022-08-22T06:41:52.161Z,63.98
2022-08-22T06:44:22.130Z,63.95
2022-08-22T06:46:55.152Z,64.04
2022-08-22T06:49:27.459Z,64.23
2022-08-22T06:52:01.578Z,64.12
2022-08-22T06:54:35.791Z,64.17
2022-08-22T06:57:06.733Z,64.00
2022-08-22T06:59:38.850Z,63.68
2022-08-22T07:02:18.846Z,63.76
2022-08-22T07:04:50.961Z,63.31
2022-08-22T07:07:24.030Z,63.42
2022-08-22T07:09:56.106Z,63.61
2022-08-22T07:12:31.248Z,63.32
2022-08-22T07:15:09.596Z,63.43
2022-08-22T07:17:49.625Z,63.18
2022-08-22T07:20:27.578Z,62.79
2022-08-22T07:22:59.276Z,63.15
2022-08-22T07:25:29.822Z,62.50
2022-08-22T07:28:15.866Z,62.37
2022-08-22T07:30:55.037Z,62.60
2022-08-22T07:33:38.532Z,62.10
2022-08-22T07:36:23.184Z,61.89
2022-08-22T07:39:15.016Z,62.06
2022-08-22T07:41:58.792Z,62.20
2022-08-22T07:44:30.962Z,61.80
2022-08-22T07:47:05.652Z,61.64
2022-08-22T07:49:39.673Z,61.94
2022-08-22T07:52:20.743Z,61.40
2022-08-22T07:54:57.623Z,61.26
2022-08-22T07:57:31.739Z,61.03
2022-08-22T08:00:10.475Z,60.72
2022-08-22T08:02:46.625Z,60.70
2022-08-22T08:05:17.061Z,60.47
2022-08-22T08:07:47.366Z,60.08
2022-08-22T08:10:23.511Z,59.92
2022-08-22T08:13:02.720Z,59.99
2022-08-22T08:15:35.045Z,60.30
2022-08-22T08:18:08.877Z,60.54
2022-08-22T08:20:39.067Z,59.98
2022-08-22T08:23:11.406Z,60.46
2022-08-22T08:25:55.673Z,60.26
2022-08-22T08:28:34.014Z,59.88
2022-08-22T08:31:09.387Z,59.49
2022-08-22T08:33:41.808Z,59.41
2022-08-22T08:36:24.689Z,59.69
2022-08-22T08:39:02.649Z,59.20
2022-08-22T08:42:05.401Z,58.96
2022-08-22T08:45:04.272Z,58.80
2022-08-22T08:47:43.212Z,59.11
2022-08-22T08:50:33.768Z,58.74
2022-08-22T08:53:34.949Z,58.78
2022-08-22T08:56:19.456Z,58.39
2022-08-22T08:59:00.123Z,58.30
2022-08-22T09:01:50.250Z,57.79
2022-08-22T09:04:50.596Z,57.54
2022-08-22T09:07:56.867Z,57.16
2022-08-22T09:11:01.274Z,57.13
2022-08-22T09:13:50.243Z,56.88
2022-08-22T09:16:37.442Z,56.72
2022-08-22T09:19:37.480Z,56.04
2022-08-22T09:22:49.866Z,56.30
2022-08-22T09:25:27.195Z,56.22
2022-08-22T09:28:16.930Z,56.14
2022-08-22T09:31:32.804Z,55.72
2022-08-22T09:34:13.532Z,55.92
2022-08-22T09:37:14.139Z,55.82
2022-08-22T09:39:57.568Z,55.86
2022-08-22T09:42:39.670Z,55.84
2022-08-22T09:45:38.857Z,55.61
2022-08-22T09:48:13.578Z,55.75
2022-08-22T09:50:54.690Z,55.60
2022-08-22T09:53:44.880Z,55.50
2022-08-22T09:56:20.343Z,55.93
2022-08-22T09:59:00.286Z,55.78
2022-08-22T10:01:33.903Z,56.12
2022-08-22T10:04:40.325Z,55.94
2022-08-22T10:07:35.469Z,55.86
2022-08-22T10:10:22.348Z,55.84
2022-08-22T10:13:00.237Z,56.13
2022-08-22T10:15:37.639Z,56.03
2022-08-22T10:18:23.666Z,55.92
2022-08-22T10:21:09.238Z,56.20
2022-08-22T10:23:45.919Z,56.27
2022-08-22T10:26:29.244Z,56.05
2022-08-22T10:29:08.140Z,55.97
2022-08-22T10:31:58.392Z,55.82
2022-08-22T10:34:35.548Z,55.61
2022-08-22T10:37:23.602Z,56.03
2022-08-22T10:40:00.322Z,55.58
2022-08-22T10:42:37.487Z,55.66
2022-08-22T10:45:36.882Z,55.63
2022-08-22T10:48:28.803Z,55.64
2022-08-22T10:51:08.620Z,55.39
2022-08-22T10:53:55.913Z,55.27
2022-08-22T10:56:31.694Z,54.97
2022-08-22T10:59:08.773Z,54.99
2022-08-22T11:01:47.655Z,54.99
2022-08-22T11:04:32.407Z,54.94
2022-08-22T11:07:16.554Z,54.43
2022-08-22T11:09:51.731Z,54.45
2022-08-22T11:12:34.536Z,53.83
2022-08-22T11:15:13.766Z,52.92
2022-08-22T11:18:14.893Z,53.07
2022-08-22T11:20:55.827Z,52.93
2022-08-22T11:23:37.647Z,52.62
2022-08-22T11:26:30.059Z,52.37
2022-08-22T11:29:24.403Z,52.03
2022-08-22T11:32:06.484Z,51.77
2022-08-22T11:34:50.720Z,51.77
2022-08-22T11:37:43.423Z,51.49
2022-08-22T11:40:36.613Z,51.41
2022-08-22T11:43:26.640Z,51.55
2022-08-22T11:46:00.606Z,51.30
2022-08-22T11:48:41.278Z,51.35
2022-08-22T11:51:26.350Z,51.84
2022-08-22T11:54:06.737Z,51.62
2022-08-22T11:56:43.488Z,51.55
2022-08-22T11:59:22.832Z,51.34
2022-08-22T12:01:59.307Z,51.26
2022-08-22T12:04:33.649Z,51.42
2022-08-22T12:07:13.776Z,51.10
2022-08-22T12:09:51.654Z,51.20
2022-08-22T12:12:37.006Z,51.03
2022-08-22T12:15:17.620Z,51.04
2022-08-22T12:18:22.033Z,51.00
2022-08-22T12:21:22.325Z,50.66
2022-08-22T12:24:27.532Z,51.24
2022-08-22T12:27:28.937Z,51.19
2022-08-22T12:30:13.726Z,51.21
2022-08-22T12:33:15.500Z,51.41
2022-08-22T12:36:18.479Z,51.35
2022-08-22T12:39:05.018Z,51.53
2022-08-22T12:42:05.864Z,51.42
2022-08-22T12:44:50.749Z,51.24
2022-08-22T12:47:34.301Z,51.33
2022-08-22T12:50:17.140Z,51.67
2022-08-22T12:53:06.383Z,51.50
2022-08-22T12:56:12.699Z,51.60
2022-08-22T12:59:10.920Z,51.62
2022-08-22T13:01:45.284Z,51.78
2022-08-22T13:04:32.821Z,51.86
2022-08-22T13:07:09.644Z,51.82
2022-08-22T13:09:40.635Z,51.90
2022-08-22T13:12:24.676Z,51.67
2022-08-22T13:14:57.368Z,51.88
2022-08-22T13:17:27.919Z,52.29
2022-08-22T13:20:11.881Z,51.89
2022-08-22T13:22:45.489Z,52.32
2022-08-22T13:25:26.336Z,51.91
2022-08-22T13:27:59.256Z,51.86
2022-08-22T13:30:37.585Z,51.60
2022-08-22T13:33:11.019Z,52.01
2022-08-22T13:35:44.669Z,51.85
2022-08-22T13:38:25.893Z,51.67
2022-08-22T13:40:57.922Z,51.51
2022-08-22T13:43:29.630Z,51.44
2022-08-22T13:46:01.727Z,51.73
2022-08-22T13:48:46.953Z,51.71
2022-08-22T13:51:25.122Z,51.58
2022-08-22T13:54:02.406Z,51.44
2022-08-22T13:56:39.572Z,51.54
2022-08-22T13:59:49.074Z,51.35
2022-08-22T14:02:25.175Z,51.40
2022-08-22T14:05:06.315Z,50.99
2022-08-22T14:11:02.163Z,51.23
2022-08-22T14:13:42.865Z,51.07
2022-08-22T14:16:19.641Z,51.11
2022-08-22T14:18:54.313Z,51.23
2022-08-22T14:21:40.848Z,51.17
2022-08-22T14:24:18.865Z,51.18
2022-08-22T14:26:54.791Z,51.10
2022-08-22T14:29:31.722Z,50.87
2022-08-22T14:32:05.960Z,51.14
2022-08-22T14:34:40.938Z,50.98
2022-08-22T14:37:21.046Z,50.80
2022-08-22T14:39:56.408Z,50.89
2022-08-22T14:42:30.822Z,51.08
2022-08-22T14:45:07.853Z,51.01
2022-08-22T14:47:55.275Z,51.15
2022-08-22T14:50:39.987Z,50.95
2022-08-22T14:53:22.279Z,51.22
2022-08-22T14:56:01.533Z,51.01
2022-08-22T14:58:36.186Z,51.22
2022-08-22T15:01:11.707Z,50.94
2022-08-22T15:03:42.657Z,50.85
2022-08-22T15:06:29.234Z,50.89
2022-08-22T15:09:00.566Z,50.82
2022-08-22T15:11:37.818Z,50.97
2022-08-22T15:14:24.225Z,50.95
2022-08-22T15:16:55.540Z,51.07
2022-08-22T15:19:28.099Z,51.04
2022-08-22T15:22:13.483Z,51.18
2022-08-22T15:24:46.840Z,51.20
2022-08-22T15:27:20.115Z,51.30
2022-08-22T15:29:50.563Z,51.39
2022-08-22T15:32:23.755Z,51.29
2022-08-22T15:35:06.242Z,51.46
2022-08-22T15:37:52.865Z,51.63
2022-08-22T15:40:33.530Z,51.85
2022-08-22T15:43:18.517Z,51.85
2022-08-22T15:45:51.356Z,51.98
2022-08-22T15:48:35.765Z,52.23
2022-08-22T15:51:09.897Z,52.29
2022-08-22T15:54:01.357Z,52.27
2022-08-22T15:56:35.272Z,52.64
2022-08-22T15:59:48.136Z,52.33
2022-08-22T16:02:30.588Z,52.57
2022-08-22T16:05:23.422Z,52.61
2022-08-22T16:08:02.987Z,52.80
2022-08-22T16:10:37.272Z,52.60
2022-08-22T16:13:14.904Z,52.92
2022-08-22T16:15:57.724Z,52.66
2022-08-22T16:19:02.551Z,52.69
2022-08-22T16:22:10.869Z,53.05
2022-08-22T16:25:02.757Z,53.15
2022-08-22T16:27:31.964Z,53.13
2022-08-22T16:30:11.668Z,53.22
2022-08-22T16:32:50.371Z,53.12
2022-08-22T16:35:50.984Z,53.53
2022-08-22T16:38:26.288Z,53.43
2022-08-22T16:40:55.343Z,53.45
2022-08-22T16:43:28.794Z,53.30
2022-08-22T16:45:59.105Z,53.62
2022-08-22T16:48:35.224Z,53.35
2022-08-22T16:51:13.909Z,53.40
2022-08-22T16:54:11.213Z,53.49
2022-08-22T16:57:01.602Z,54.02
2022-08-22T17:00:06.706Z,53.52
2022-08-22T17:02:59.091Z,53.78
2022-08-22T17:05:47.195Z,53.79
2022-08-22T17:08:32.169Z,53.80
2022-08-22T17:11:11.697Z,54.15
2022-08-22T17:14:12.372Z,54.28
2022-08-22T17:16:58.143Z,53.77
2022-08-22T17:19:42.924Z,54.49
2022-08-22T17:22:19.963Z,54.19
2022-08-22T17:25:03.430Z,54.66
2022-08-22T17:27:39.120Z,54.66
2022-08-22T17:30:11.772Z,54.63
2022-08-22T17:33:06.062Z,54.31
2022-08-22T17:35:55.722Z,54.88
2022-08-22T17:38:38.368Z,54.96
2022-08-22T17:41:20.249Z,54.99
2022-08-22T17:43:57.666Z,55.24
2022-08-22T17:46:37.090Z,54.77
2022-08-22T17:49:20.156Z,55.16
2022-08-22T17:51:54.797Z,54.94
2022-08-22T17:54:32.023Z,55.52
2022-08-22T17:57:05.882Z,55.40
2022-08-22T17:59:45.607Z,56.11
2022-08-22T18:02:20.811Z,56.27
2022-08-22T18:05:02.878Z,55.97
2022-08-22T18:07:40.357Z,56.45
2022-08-22T18:10:19.029Z,56.13
2022-08-22T18:13:06.317Z,56.80
2022-08-22T18:15:47.016Z,56.88
2022-08-22T18:18:29.951Z,57.14
2022-08-22T18:21:03.192Z,56.81
2022-08-22T18:23:40.562Z,57.49
2022-08-22T18:26:27.249Z,57.43
2022-08-22T18:28:59.705Z,57.67
2022-08-22T18:31:38.618Z,57.45
2022-08-22T18:34:18.793Z,58.06
2022-08-22T18:36:55.724Z,58.06
2022-08-22T18:39:29.602Z,58.37
2022-08-22T18:42:04.720Z,58.34
2022-08-22T18:44:39.250Z,58.52
2022-08-22T18:47:17.708Z,58.65
2022-08-22T18:49:54.100Z,58.95
2022-08-22T18:52:34.746Z,59.11
2022-08-22T18:55:23.146Z,58.92
2022-08-22T18:58:12.819Z,59.42
2022-08-22T19:00:57.061Z,59.43
2022-08-22T19:03:39.671Z,59.20
2022-08-22T19:06:31.926Z,59.25
2022-08-22T19:09:24.185Z,59.21
2022-08-22T19:12:03.023Z,59.57
2022-08-22T19:14:51.082Z,59.58
2022-08-22T19:17:59.205Z,60.06
2022-08-22T19:20:48.368Z,59.84
2022-08-22T19:23:50.769Z,59.95
2022-08-22T19:26:42.686Z,59.84
2022-08-22T19:29:47.660Z,59.75
2022-08-22T19:32:49.040Z,60.07
2022-08-22T19:35:23.188Z,59.71
2022-08-22T19:37:53.841Z,59.98
2022-08-22T19:40:53.961Z,59.84
2022-08-22T19:43:31.754Z,60.20
2022-08-22T19:46:03.709Z,60.31
2022-08-22T19:48:44.056Z,60.49
2022-08-22T19:51:25.129Z,60.77
2022-08-22T19:54:16.258Z,60.87
2022-08-22T19:57:04.194Z,60.77
2022-08-22T19:59:50.818Z,61.37
2022-08-22T20:02:35.085Z,61.26
2022-08-22T20:05:12.346Z,61.63
2022-08-22T20:08:02.418Z,61.30
2022-08-22T20:10:49.027Z,61.26
2022-08-22T20:13:22.392Z,61.60
2022-08-22T20:16:15.953Z,61.97
2022-08-22T20:19:19.404Z,62.01
2022-08-22T20:21:57.598Z,61.99
2022-08-22T20:24:41.062Z,62.06
2022-08-22T20:27:15.468Z,62.08
2022-08-22T20:29:49.984Z,62.05
2022-08-22T20:32:22.506Z,62.43
2022-08-22T20:34:58.558Z,62.41
2022-08-22T20:38:05.889Z,62.73
2022-08-22T20:40:55.179Z,62.78
2022-08-22T20:43:25.611Z,63.00
2022-08-22T20:46:07.198Z,63.16
2022-08-22T20:48:44.824Z,62.79
2022-08-22T20:51:19.118Z,63.01
2022-08-22T20:53:53.618Z,62.93
2022-08-22T20:56:37.309Z,63.12
2022-08-22T20:59:29.501Z,63.39
2022-08-22T21:02:12.160Z,63.08
2022-08-22T21:04:48.252Z,63.64
2022-08-22T21:07:23.173Z,63.40
2022-08-22T21:10:21.601Z,63.40
2022-08-22T21:13:10.269Z,64.05
2022-08-22T21:15:42.977Z,63.78
2022-08-22T21:18:13.644Z,63.71
2022-08-22T21:20:42.154Z,64.05
2022-08-22T21:23:15.384Z,64.14
2022-08-22T21:25:58.543Z,64.03
2022-08-22T21:28:31.512Z,64.60
2022-08-22T21:31:10.016Z,64.69
2022-08-22T21:33:41.932Z,64.76
2022-08-22T21:36:13.400Z,64.26
2022-08-22T21:38:48.668Z,64.52
2022-08-22T21:41:26.769Z,65.05
2022-08-22T21:43:55.578Z,65.30
2022-08-22T21:46:28.773Z,65.17
2022-08-22T21:49:02.869Z,65.31
2022-08-22T21:51:41.317Z,65.44
2022-08-22T21:54:40.224Z,65.78
2022-08-22T21:57:21.454Z,65.40
2022-08-22T21:59:58.623Z,65.61
2022-08-22T22:02:39.784Z,65.82
2022-08-22T22:05:11.674Z,65.84
2022-08-22T22:07:43.720Z,66.25
2022-08-22T22:10:15.652Z,66.18
2022-08-22T22:12:46.750Z,66.22
2022-08-22T22:15:19.334Z,66.27
2022-08-22T22:17:50.281Z,66.34
2022-08-22T22:20:21.666Z,65.91
2022-08-22T22:22:50.323Z,66.62
2022-08-22T22:25:41.324Z,66.64
2022-08-22T22:28:13.695Z,66.67
2022-08-22T22:30:43.270Z,67.00
2022-08-22T22:33:12.149Z,66.58
2022-08-22T22:35:41.151Z,66.61
2022-08-22T22:38:09.941Z,66.79
2022-08-22T22:40:38.721Z,67.10
2022-08-22T22:43:07.203Z,67.08
2022-08-22T22:45:35.992Z,67.53
2022-08-22T22:48:05.717Z,67.51
2022-08-22T22:50:39.956Z,67.63
2022-08-22T22:53:09.709Z,67.43
2022-08-22T22:55:41.513Z,67.39
2022-08-22T22:58:10.518Z,67.42
2022-08-22T23:00:39.025Z,67.80
2022-08-22T23:03:08.067Z,67.97
2022-08-22T23:05:36.555Z,67.58
2022-08-22T23:08:05.389Z,67.51
2022-08-22T23:10:34.074Z,67.61
2022-08-22T23:13:05.291Z,68.21
2022-08-22T23:15:33.960Z,68.15
2022-08-22T23:18:02.457Z,68.50
2022-08-22T23:20:31.353Z,68.32
2022-08-22T23:22:59.963Z,67.93
2022-08-22T23:25:28.637Z,68.10
2022-08-22T23:27:57.290Z,68.34
2022-08-22T23:30:26.105Z,68.11
2022-08-22T23:32:55.536Z,68.47
2022-08-22T23:35:24.078Z,68.16
2022-08-22T23:37:52.702Z,68.46
2022-08-22T23:40:21.229Z,68.52
2022-08-22T23:42:49.963Z,68.80
2022-08-22T23:45:18.669Z,68.80
2022-08-22T23:47:48.571Z,68.79
2022-08-22T23:50:17.352Z,69.06
2022-08-22T23:52:46.303Z,69.29
2022-08-22T23:55:14.867Z,69.20
2022-08-22T23:57:43.371Z,69.21
